Time;durP1;ratioP1;P1;durP2;ratioP2;P2;SDS_P1;SDS_P2;PMS_P1;PMS_P2;Temp;Humidity;BMP_temperature;BMP_pressure;BME280_temperature;BME280_humidity;BME280_pressure;Samples;Min_cycle;Max_cycle;Signal;HPM_P1;HPM_P2
2022/03/17 00:02:03;;;;;;;62.42;29.85;;;;;;;;;;5056110;28;20365;-58
2022/03/17 00:04:28;;;;;;;63.03;29.73;;;;;;;;;;5056870;28;20036;-58
2022/03/17 00:06:54;;;;;;;61.90;29.60;;;;;;;;;;5052915;28;20116;-59
2022/03/17 00:09:19;;;;;;;58.42;28.85;;;;;;;;;;5054270;28;20349;-58
2022/03/17 00:11:45;;;;;;;58.42;26.95;;;;;;;;;;5052330;28;20033;-58
2022/03/17 00:14:10;;;;;;;61.28;28.55;;;;;;;;;;5051841;28;20029;-59
2022/03/17 00:16:36;;;;;;;58.45;27.90;;;;;;;;;;5054620;28;20032;-58
2022/03/17 00:19:07;;;;;;;62.88;28.92;;;;;;;;;;5052988;28;20098;-58
2022/03/17 00:21:37;;;;;;;60.42;27.27;;;;;;;;;;5052690;28;20055;-58
2022/03/17 00:24:06;;;;;;;56.85;27.35;;;;;;;;;;5054443;28;20151;-59
2022/03/17 00:26:33;;;;;;;58.92;27.23;;;;;;;;;;5057601;28;20095;-59
2022/03/17 00:28:58;;;;;;;61.13;27.23;;;;;;;;;;5059543;28;20379;-59
2022/03/17 00:31:23;;;;;;;58.83;26.92;;;;;;;;;;5063004;28;20033;-58
2022/03/17 00:33:49;;;;;;;60.03;27.40;;;;;;;;;;5053227;28;20024;-57
2022/03/17 00:36:15;;;;;;;57.55;26.45;;;;;;;;;;5054080;28;20029;-58
2022/03/17 00:38:40;;;;;;;57.60;27.33;;;;;;;;;;5055289;28;20029;-59
2022/03/17 00:41:06;;;;;;;55.72;25.73;;;;;;;;;;5053233;28;20044;-59
2022/03/17 00:43:33;;;;;;;60.45;27.52;;;;;;;;;;5059278;28;20052;-60
2022/03/17 00:45:59;;;;;;;53.88;24.42;;;;;;;;;;5057075;28;20052;-61
2022/03/17 00:48:24;;;;;;;58.95;25.48;;;;;;;;;;5058521;28;20488;-60
2022/03/17 00:50:50;;;;;;;58.50;26.80;;;;;;;;;;5063049;28;20032;-60
2022/03/17 00:53:15;;;;;;;61.85;26.83;;;;;;;;;;5057384;28;20024;-58
2022/03/17 00:55:41;;;;;;;56.50;25.58;;;;;;;;;;5052954;28;20025;-59
2022/03/17 00:58:06;;;;;;;55.00;25.70;;;;;;;;;;5057492;28;20025;-59
2022/03/17 01:00:32;;;;;;;55.75;25.27;;;;;;;;;;5060560;28;20039;-59
2022/03/17 01:02:57;;;;;;;54.38;25.65;;;;;;;;;;5063603;28;20055;-60
2022/03/17 01:05:23;;;;;;;51.58;25.33;;;;;;;;;;5057031;28;20112;-59
2022/03/17 01:07:50;;;;;;;52.08;25.15;;;;;;;;;;5059254;28;20050;-59
2022/03/17 01:10:17;;;;;;;55.42;25.95;;;;;;;;;;5062207;28;20041;-59
2022/03/17 01:12:46;;;;;;;54.65;24.63;;;;;;;;;;5063790;28;20432;-59
2022/03/17 01:15:13;;;;;;;57.83;27.07;;;;;;;;;;5056726;28;20028;-59
2022/03/17 01:17:38;;;;;;;54.67;26.30;;;;;;;;;;5053925;28;20036;-59
2022/03/17 01:20:05;;;;;;;53.63;25.42;;;;;;;;;;5054913;28;20025;-60
2022/03/17 01:22:31;;;;;;;60.60;28.27;;;;;;;;;;5055790;28;20428;-59
2022/03/17 01:24:57;;;;;;;53.97;25.30;;;;;;;;;;5058909;28;20119;-60
2022/03/17 01:27:23;;;;;;;55.65;26.42;;;;;;;;;;5052317;28;20389;-60
2022/03/17 01:29:50;;;;;;;57.30;26.63;;;;;;;;;;5065197;28;20032;-60
2022/03/17 01:32:16;;;;;;;57.45;26.38;;;;;;;;;;5059724;28;20033;-59
2022/03/17 01:34:42;;;;;;;60.40;25.90;;;;;;;;;;5058269;28;20032;-59
2022/03/17 01:37:07;;;;;;;62.50;27.45;;;;;;;;;;5063147;28;20099;-66
2022/03/17 01:39:33;;;;;;;56.83;26.58;;;;;;;;;;5065741;28;20079;-59
2022/03/17 01:42:02;;;;;;;58.10;26.52;;;;;;;;;;5060058;28;20519;-59
2022/03/17 01:44:27;;;;;;;57.20;25.70;;;;;;;;;;5065970;28;20036;-59
2022/03/17 01:49:38;;;;;;;57.10;27.20;;;;;;;;;;5063777;28;20040;-59
2022/03/17 01:52:04;;;;;;;60.35;25.55;;;;;;;;;;5059245;28;20029;-59
2022/03/17 01:54:30;;;;;;;56.13;25.33;;;;;;;;;;5060171;28;20499;-59
2022/03/17 01:56:55;;;;;;;60.17;27.05;;;;;;;;;;5056494;28;20108;-60
2022/03/17 01:59:22;;;;;;;56.28;26.52;;;;;;;;;;5061791;28;20028;-59
2022/03/17 02:01:48;;;;;;;57.83;26.13;;;;;;;;;;5056053;28;20151;-59
2022/03/17 02:04:13;;;;;;;61.40;26.17;;;;;;;;;;5054638;28;20033;-60
2022/03/17 02:06:39;;;;;;;50.97;24.10;;;;;;;;;;5059418;28;20033;-59
2022/03/17 02:09:05;;;;;;;53.42;24.52;;;;;;;;;;5053823;28;20035;-59
2022/03/17 02:14:20;;;;;;;57.60;27.55;;;;;;;;;;5054125;28;20032;-60
2022/03/17 02:16:46;;;;;;;52.10;25.08;;;;;;;;;;5055583;28;20025;-60
2022/03/17 02:19:12;;;;;;;56.28;25.92;;;;;;;;;;5060284;28;20068;-59
2022/03/17 02:21:39;;;;;;;55.70;25.17;;;;;;;;;;5059674;28;20028;-59
2022/03/17 02:26:50;;;;;;;63.05;26.85;;;;;;;;;;5057757;28;20039;-58
2022/03/17 02:29:15;;;;;;;55.55;26.48;;;;;;;;;;5051832;28;20502;-59
2022/03/17 02:31:41;;;;;;;56.03;26.27;;;;;;;;;;5061050;28;20062;-58
2022/03/17 02:34:07;;;;;;;56.15;25.33;;;;;;;;;;5056707;28;20032;-60
2022/03/17 02:36:32;;;;;;;55.30;24.80;;;;;;;;;;5059751;28;20202;-60
2022/03/17 02:38:57;;;;;;;58.83;25.42;;;;;;;;;;5057661;28;20159;-60
2022/03/17 02:41:23;;;;;;;57.42;25.52;;;;;;;;;;5056616;28;20507;-59
2022/03/17 02:43:55;;;;;;;59.63;25.05;;;;;;;;;;5059023;28;20032;-60
2022/03/17 02:46:23;;;;;;;58.13;25.95;;;;;;;;;;5060760;28;20035;-60
2022/03/17 02:48:49;;;;;;;57.58;25.02;;;;;;;;;;5064940;28;20023;-59
2022/03/17 02:51:14;;;;;;;55.53;26.65;;;;;;;;;;5058872;28;20095;-59
2022/03/17 02:53:40;;;;;;;60.28;26.02;;;;;;;;;;5059273;28;20036;-60
2022/03/17 02:56:05;;;;;;;58.17;25.85;;;;;;;;;;5054762;28;20039;-60
2022/03/17 02:58:31;;;;;;;57.72;25.13;;;;;;;;;;5058778;28;20340;-59
2022/03/17 03:00:57;;;;;;;56.38;25.33;;;;;;;;;;5061395;28;20036;-60
2022/03/17 03:03:23;;;;;;;59.72;26.85;;;;;;;;;;5060023;28;20416;-59
2022/03/17 03:05:48;;;;;;;59.42;25.48;;;;;;;;;;5065233;28;20050;-59
2022/03/17 03:08:15;;;;;;;63.45;28.27;;;;;;;;;;5053456;28;20498;-60
2022/03/17 03:10:41;;;;;;;63.00;26.70;;;;;;;;;;5054928;28;20028;-59
2022/03/17 03:13:07;;;;;;;68.38;29.92;;;;;;;;;;5060308;28;20111;-59
2022/03/17 03:15:32;;;;;;;63.70;27.95;;;;;;;;;;5059132;28;20107;-59
2022/03/17 03:17:58;;;;;;;67.50;29.00;;;;;;;;;;5058599;28;20041;-60
2022/03/17 03:20:23;;;;;;;61.72;28.48;;;;;;;;;;5058466;28;20029;-60
2022/03/17 03:22:49;;;;;;;68.32;29.00;;;;;;;;;;5054966;28;20088;-60
2022/03/17 03:25:15;;;;;;;66.60;29.52;;;;;;;;;;5056583;28;20526;-60
2022/03/17 03:27:40;;;;;;;65.35;28.90;;;;;;;;;;5055156;28;20021;-60
2022/03/17 03:30:08;;;;;;;66.43;28.95;;;;;;;;;;5048655;28;20031;-60
2022/03/17 03:32:34;;;;;;;67.85;29.27;;;;;;;;;;5052669;28;20029;-59
2022/03/17 03:37:22;;;;;;;68.82;29.42;;;;;;;;;;5055478;28;20051;-59
2022/03/17 03:37:45;;;;;;;65.60;28.75;;;;;;;;;;5061271;28;20047;-59
2022/03/17 03:40:10;;;;;;;67.45;28.10;;;;;;;;;;5064677;28;20028;-59
2022/03/17 03:42:35;;;;;;;70.18;30.20;;;;;;;;;;5062548;28;20033;-59
2022/03/17 03:45:01;;;;;;;65.88;29.02;;;;;;;;;;5060084;28;20430;-58
2022/03/17 03:47:26;;;;;;;68.63;30.13;;;;;;;;;;5056826;28;20039;-60
2022/03/17 03:49:52;;;;;;;73.68;30.33;;;;;;;;;;5061575;28;20354;-60
2022/03/17 03:52:17;;;;;;;70.45;29.67;;;;;;;;;;5059520;28;20035;-59
2022/03/17 03:54:43;;;;;;;74.47;29.75;;;;;;;;;;5054578;28;20107;-59
2022/03/17 03:57:09;;;;;;;70.85;30.88;;;;;;;;;;5060383;28;20310;-59
2022/03/17 03:59:35;;;;;;;75.57;32.05;;;;;;;;;;5060866;28;20032;-59
2022/03/17 04:02:04;;;;;;;69.40;30.10;;;;;;;;;;5053397;28;20377;-59
2022/03/17 04:04:31;;;;;;;79.78;33.45;;;;;;;;;;5056845;28;20053;-59
2022/03/17 04:07:00;;;;;;;80.78;33.70;;;;;;;;;;5057000;28;20440;-59
2022/03/17 04:09:34;;;;;;;77.17;34.13;;;;;;;;;;5053292;28;20017;-59
2022/03/17 04:12:01;;;;;;;82.57;34.80;;;;;;;;;;5053607;28;20072;-59
2022/03/17 04:14:26;;;;;;;71.82;30.88;;;;;;;;;;5054022;28;20017;-59
2022/03/17 04:16:51;;;;;;;73.35;32.45;;;;;;;;;;5050093;28;20047;-59
2022/03/17 04:19:17;;;;;;;84.40;34.25;;;;;;;;;;5051563;28;20491;-60
2022/03/17 04:21:44;;;;;;;83.40;35.05;;;;;;;;;;5054130;28;20033;-58
2022/03/17 04:24:10;;;;;;;79.63;34.85;;;;;;;;;;5051371;28;20075;-60
2022/03/17 04:26:35;;;;;;;81.47;34.50;;;;;;;;;;5059827;28;20052;-60
2022/03/17 04:29:02;;;;;;;82.75;33.33;;;;;;;;;;5058433;28;20094;-59
2022/03/17 04:31:28;;;;;;;80.38;32.88;;;;;;;;;;5064906;28;20021;-59
2022/03/17 04:33:55;;;;;;;86.90;35.60;;;;;;;;;;5065928;28;20081;-59
2022/03/17 04:36:21;;;;;;;88.97;35.95;;;;;;;;;;5066522;28;20323;-59
2022/03/17 04:38:47;;;;;;;80.05;33.63;;;;;;;;;;5060839;28;20039;-60
2022/03/17 04:41:13;;;;;;;84.75;34.67;;;;;;;;;;5059763;28;20363;-59
2022/03/17 04:43:39;;;;;;;86.32;35.35;;;;;;;;;;5066653;28;20024;-59
2022/03/17 04:46:08;;;;;;;81.32;33.50;;;;;;;;;;5064160;28;20028;-59
2022/03/17 04:48:34;;;;;;;82.22;34.85;;;;;;;;;;5059137;28;20063;-59
2022/03/17 04:51:00;;;;;;;82.07;34.88;;;;;;;;;;5061192;28;20056;-59
2022/03/17 04:53:32;;;;;;;86.75;35.22;;;;;;;;;;5059724;28;20032;-58
2022/03/17 04:56:03;;;;;;;81.55;34.33;;;;;;;;;;5056761;28;20099;-60
2022/03/17 04:58:31;;;;;;;78.50;34.28;;;;;;;;;;5058547;28;20082;-60
2022/03/17 05:00:57;;;;;;;84.50;35.88;;;;;;;;;;5058916;28;20025;-59
2022/03/17 05:03:24;;;;;;;87.57;35.60;;;;;;;;;;5058657;28;20033;-60
2022/03/17 05:05:50;;;;;;;84.25;35.42;;;;;;;;;;5057032;28;20435;-60
2022/03/17 05:08:16;;;;;;;82.65;34.95;;;;;;;;;;5059233;28;20036;-59
2022/03/17 05:10:42;;;;;;;79.63;34.10;;;;;;;;;;5056789;28;20036;-59
2022/03/17 05:13:09;;;;;;;89.53;36.05;;;;;;;;;;5054164;28;20025;-60
2022/03/17 05:15:36;;;;;;;84.55;35.15;;;;;;;;;;5054307;28;20488;-59
2022/03/17 05:18:04;;;;;;;82.88;35.80;;;;;;;;;;5060444;28;20294;-59
2022/03/17 05:20:30;;;;;;;86.15;35.75;;;;;;;;;;5054022;28;20078;-59
2022/03/17 05:22:56;;;;;;;80.68;34.10;;;;;;;;;;5060019;28;20131;-58
2022/03/17 05:25:22;;;;;;;84.40;33.35;;;;;;;;;;5053784;28;20108;-59
2022/03/17 05:27:49;;;;;;;83.15;34.20;;;;;;;;;;5060336;28;20017;-59
2022/03/17 05:30:16;;;;;;;82.10;33.97;;;;;;;;;;5060340;28;20120;-60
2022/03/17 05:32:44;;;;;;;82.93;34.38;;;;;;;;;;5066263;28;20029;-59
2022/03/17 05:35:10;;;;;;;80.05;33.10;;;;;;;;;;5055624;28;20473;-59
2022/03/17 05:37:36;;;;;;;82.25;34.03;;;;;;;;;;5067233;28;20131;-59
2022/03/17 05:40:05;;;;;;;85.47;34.50;;;;;;;;;;5062609;28;20444;-60
2022/03/17 05:42:31;;;;;;;90.43;35.53;;;;;;;;;;5052662;28;20385;-60
2022/03/17 05:44:56;;;;;;;89.82;35.47;;;;;;;;;;5061186;28;20028;-60
2022/03/17 05:47:22;;;;;;;85.45;34.65;;;;;;;;;;5058029;28;20036;-59
2022/03/17 05:49:48;;;;;;;84.85;33.63;;;;;;;;;;5061023;28;20024;-59
2022/03/17 05:52:14;;;;;;;82.05;34.75;;;;;;;;;;5059198;28;20451;-60
2022/03/17 05:54:40;;;;;;;80.38;34.17;;;;;;;;;;5057130;28;20136;-59
2022/03/17 05:57:05;;;;;;;83.28;34.92;;;;;;;;;;5059435;28;20512;-60
2022/03/17 05:59:31;;;;;;;83.43;33.97;;;;;;;;;;5052977;28;20120;-60
2022/03/17 06:01:57;;;;;;;84.22;34.53;;;;;;;;;;5056459;28;20103;-60
2022/03/17 06:04:22;;;;;;;81.43;33.92;;;;;;;;;;5054971;28;20071;-60
2022/03/17 06:06:48;;;;;;;80.30;33.70;;;;;;;;;;5062189;28;20395;-59
2022/03/17 06:09:14;;;;;;;89.03;36.17;;;;;;;;;;5062632;28;20073;-59
2022/03/17 06:11:41;;;;;;;91.10;34.47;;;;;;;;;;5055273;28;20086;-59
2022/03/17 06:14:06;;;;;;;85.28;34.60;;;;;;;;;;5054023;28;20037;-59
2022/03/17 06:16:32;;;;;;;71.68;31.45;;;;;;;;;;5051647;28;20036;-60
2022/03/17 06:18:57;;;;;;;91.30;35.25;;;;;;;;;;5059846;28;20052;-59
2022/03/17 06:21:22;;;;;;;77.55;32.75;;;;;;;;;;5058545;28;20028;-59
2022/03/17 06:23:48;;;;;;;87.20;34.70;;;;;;;;;;5051168;28;20029;-59
2022/03/17 06:26:13;;;;;;;95.80;36.20;;;;;;;;;;5059988;28;20100;-59
2022/03/17 06:28:39;;;;;;;87.95;35.35;;;;;;;;;;5060168;28;20074;-60
2022/03/17 06:31:04;;;;;;;83.25;33.70;;;;;;;;;;5062568;28;20530;-60
2022/03/17 06:33:30;;;;;;;79.10;32.20;;;;;;;;;;5062206;28;20108;-59
2022/03/17 06:35:55;;;;;;;81.85;33.78;;;;;;;;;;5064505;28;20395;-59
2022/03/17 06:38:21;;;;;;;67.53;27.77;;;;;;;;;;5063707;28;20338;-59
2022/03/17 06:40:46;;;;;;;74.38;31.73;;;;;;;;;;5048697;28;20047;-57
2022/03/17 06:43:14;;;;;;;76.38;30.95;;;;;;;;;;5062130;28;20032;-58
2022/03/17 06:45:40;;;;;;;76.63;31.67;;;;;;;;;;5057863;28;20289;-59
2022/03/17 06:48:06;;;;;;;68.28;30.08;;;;;;;;;;5055676;28;20060;-58
2022/03/17 06:50:32;;;;;;;75.07;30.35;;;;;;;;;;5057576;28;20056;-58
2022/03/17 06:52:57;;;;;;;75.93;31.58;;;;;;;;;;5059560;28;20028;-59
2022/03/17 06:55:23;;;;;;;70.22;31.73;;;;;;;;;;5053230;28;20156;-58
2022/03/17 06:57:48;;;;;;;76.22;31.40;;;;;;;;;;5058580;28;20025;-60
2022/03/17 07:00:16;;;;;;;67.72;32.15;;;;;;;;;;5056379;28;20384;-61
2022/03/17 07:02:42;;;;;;;72.38;33.10;;;;;;;;;;5054891;28;20097;-60
2022/03/17 07:05:07;;;;;;;78.70;35.33;;;;;;;;;;5057555;28;20029;-62
2022/03/17 07:07:33;;;;;;;77.25;33.90;;;;;;;;;;5058637;28;20066;-61
2022/03/17 07:09:59;;;;;;;74.78;32.65;;;;;;;;;;5050670;28;20032;-60
2022/03/17 07:12:24;;;;;;;77.65;34.13;;;;;;;;;;5050286;28;20516;-60
2022/03/17 07:14:50;;;;;;;73.00;31.70;;;;;;;;;;5047508;28;20559;-59
2022/03/17 07:17:20;;;;;;;77.07;34.05;;;;;;;;;;5050466;28;20135;-60
2022/03/17 07:19:45;;;;;;;;;;;;;;;;;;5058210;28;20020;-60
2022/03/17 07:22:10;;;;;;;79.90;33.25;;;;;;;;;;5054771;28;19931;-60
2022/03/17 07:24:36;;;;;;;79.80;35.05;;;;;;;;;;5059162;28;20021;-59
2022/03/17 07:27:02;;;;;;;75.75;32.67;;;;;;;;;;5057780;28;20114;-60
2022/03/17 07:29:31;;;;;;;76.60;32.08;;;;;;;;;;5059687;28;20593;-59
2022/03/17 07:31:56;;;;;;;75.35;32.58;;;;;;;;;;5057234;28;20032;-59
2022/03/17 07:34:23;;;;;;;76.90;31.45;;;;;;;;;;5056739;28;20033;-59
2022/03/17 07:36:51;;;;;;;79.18;34.28;;;;;;;;;;5055744;28;20392;-60
2022/03/17 07:39:17;;;;;;;80.38;34.45;;;;;;;;;;5061053;28;20092;-59
2022/03/17 07:41:42;;;;;;;80.30;33.80;;;;;;;;;;5054675;28;20036;-61
2022/03/17 07:44:08;;;;;;;77.25;32.20;;;;;;;;;;5055546;28;20025;-59
2022/03/17 07:46:33;;;;;;;83.18;34.17;;;;;;;;;;5056585;28;20020;-59
2022/03/17 07:48:58;;;;;;;80.50;34.58;;;;;;;;;;5057041;28;20027;-59
2022/03/17 07:51:24;;;;;;;79.43;34.33;;;;;;;;;;5056559;28;20055;-58
2022/03/17 07:53:49;;;;;;;86.53;33.58;;;;;;;;;;5057084;28;20078;-59
2022/03/17 07:56:18;;;;;;;81.70;35.35;;;;;;;;;;5055650;28;20477;-60
2022/03/17 07:58:44;;;;;;;81.25;35.35;;;;;;;;;;5057143;28;20056;-60
2022/03/17 08:01:11;;;;;;;81.88;36.58;;;;;;;;;;5056673;28;20371;-60
2022/03/17 08:03:39;;;;;;;81.50;36.80;;;;;;;;;;5054694;28;20484;-59
2022/03/17 08:06:05;;;;;;;85.53;37.63;;;;;;;;;;5050522;28;20029;-59
2022/03/17 08:08:30;;;;;;;83.22;35.20;;;;;;;;;;5050631;28;20020;-59
2022/03/17 08:10:57;;;;;;;86.07;36.80;;;;;;;;;;5053190;28;20070;-59
2022/03/17 08:13:25;;;;;;;83.93;35.20;;;;;;;;;;5053485;28;20016;-60
2022/03/17 08:15:51;;;;;;;85.38;34.90;;;;;;;;;;5062735;28;20031;-59
2022/03/17 08:18:16;;;;;;;83.63;35.65;;;;;;;;;;5048755;28;20120;-60
2022/03/17 08:20:42;;;;;;;80.95;34.97;;;;;;;;;;5053554;28;20070;-59
2022/03/17 08:23:08;;;;;;;83.25;34.38;;;;;;;;;;5052941;28;20029;-60
2022/03/17 08:25:35;;;;;;;77.47;33.78;;;;;;;;;;5056065;28;20036;-60
2022/03/17 08:28:04;;;;;;;77.72;34.83;;;;;;;;;;5060826;28;21166;-60
2022/03/17 08:30:32;;;;;;;78.43;33.45;;;;;;;;;;5060910;28;20021;-59
2022/03/17 08:32:58;;;;;;;81.47;34.45;;;;;;;;;;5049265;28;20062;-59
2022/03/17 08:35:24;;;;;;;80.47;33.72;;;;;;;;;;5054170;28;20649;-59
2022/03/17 08:37:50;;;;;;;86.03;36.47;;;;;;;;;;5063637;28;20625;-60
2022/03/17 08:40:16;;;;;;;84.03;34.65;;;;;;;;;;5055922;28;20032;-59
2022/03/17 08:42:41;;;;;;;85.47;34.60;;;;;;;;;;5060522;28;20029;-59
2022/03/17 08:50:47;;;;;;;86.55;34.95;;;;;;;;;;5049832;28;20047;-59
2022/03/17 08:53:13;;;;;;;80.65;35.35;;;;;;;;;;5055023;28;20476;-59
2022/03/17 08:55:39;;;;;;;86.28;35.22;;;;;;;;;;5055278;28;20100;-59
2022/03/17 08:58:06;;;;;;;79.40;34.63;;;;;;;;;;5053184;28;20029;-58
2022/03/17 09:00:34;;;;;;;80.35;33.42;;;;;;;;;;5051868;28;20074;-59
2022/03/17 09:03:07;;;;;;;78.50;34.78;;;;;;;;;;5051737;28;20021;-59
2022/03/17 09:05:35;;;;;;;75.35;33.13;;;;;;;;;;5057177;28;20093;-59
2022/03/17 09:08:01;;;;;;;75.05;33.90;;;;;;;;;;5048902;28;20040;-59
2022/03/17 09:10:27;;;;;;;75.03;32.05;;;;;;;;;;5049204;28;20107;-60
2022/03/17 09:13:07;;;;;;;75.88;33.72;;;;;;;;;;5055247;28;20033;-58
2022/03/17 09:15:34;;;;;;;83.53;34.10;;;;;;;;;;5051449;28;20028;-59
2022/03/17 09:17:59;;;;;;;77.07;34.72;;;;;;;;;;5053567;28;20090;-59
2022/03/17 09:20:25;;;;;;;78.05;34.53;;;;;;;;;;5057043;28;20429;-59
2022/03/17 09:22:50;;;;;;;78.43;35.50;;;;;;;;;;5062369;28;20021;-60
2022/03/17 09:25:18;;;;;;;80.18;36.60;;;;;;;;;;5066911;28;20032;-59
2022/03/17 09:27:44;;;;;;;78.50;36.30;;;;;;;;;;5066093;28;20029;-59
2022/03/17 09:30:10;;;;;;;83.63;35.65;;;;;;;;;;5056584;28;20417;-60
2022/03/17 09:32:35;;;;;;;80.22;34.92;;;;;;;;;;5059954;28;20028;-61
2022/03/17 09:35:01;;;;;;;82.63;36.70;;;;;;;;;;5062298;28;20029;-59
2022/03/17 09:37:27;;;;;;;88.80;38.28;;;;;;;;;;5063652;28;20123;-58
2022/03/17 09:39:52;;;;;;;87.10;37.60;;;;;;;;;;5055118;28;20031;-59
2022/03/17 09:42:20;;;;;;;87.20;38.60;;;;;;;;;;5057116;28;20024;-59
2022/03/17 09:44:53;;;;;;;94.88;39.13;;;;;;;;;;5053749;28;20028;-59
2022/03/17 09:47:22;;;;;;;97.13;41.90;;;;;;;;;;5060054;28;20032;-60
2022/03/17 09:49:54;;;;;;;85.85;38.85;;;;;;;;;;5062211;28;20997;-60
2022/03/17 09:52:21;;;;;;;85.28;38.10;;;;;;;;;;5054431;28;20336;-60
2022/03/17 09:54:49;;;;;;;83.07;37.08;;;;;;;;;;5057798;28;20748;-61
2022/03/17 09:57:17;;;;;;;81.47;36.05;;;;;;;;;;5053510;28;20033;-60
2022/03/17 09:59:53;;;;;;;75.18;34.70;;;;;;;;;;5061026;28;20096;-60
2022/03/17 10:02:19;;;;;;;79.10;35.45;;;;;;;;;;5053074;28;20035;-60
2022/03/17 10:04:46;;;;;;;78.90;35.47;;;;;;;;;;5063288;28;20043;-59
2022/03/17 10:07:12;;;;;;;82.45;36.53;;;;;;;;;;5052009;28;20037;-59
2022/03/17 10:09:38;;;;;;;83.40;36.63;;;;;;;;;;5055336;28;20035;-59
2022/03/17 10:12:06;;;;;;;78.97;36.22;;;;;;;;;;5050553;28;20035;-59
2022/03/17 10:14:52;;;;;;;79.03;34.63;;;;;;;;;;5062363;28;20119;-59
2022/03/17 10:17:37;;;;;;;79.50;34.90;;;;;;;;;;5062212;28;20023;-59
2022/03/17 10:20:16;;;;;;;78.70;35.97;;;;;;;;;;5061080;28;20503;-59
2022/03/17 10:22:55;;;;;;;77.50;35.90;;;;;;;;;;5060182;28;20045;-60
2022/03/17 10:25:22;;;;;;;79.63;36.35;;;;;;;;;;5059662;28;20029;-60
2022/03/17 10:27:49;;;;;;;75.97;34.78;;;;;;;;;;5051866;28;20024;-61
2022/03/17 10:30:22;;;;;;;76.65;36.30;;;;;;;;;;5064633;28;20032;-61
2022/03/17 10:32:57;;;;;;;75.43;34.63;;;;;;;;;;5064304;28;20029;-59
2022/03/17 10:35:29;;;;;;;77.72;34.42;;;;;;;;;;5056286;28;20032;-60
2022/03/17 10:37:55;;;;;;;71.90;34.15;;;;;;;;;;5057609;28;20495;-59
2022/03/17 10:40:29;;;;;;;74.63;33.55;;;;;;;;;;5053227;28;20036;-60
2022/03/17 10:43:23;;;;;;;76.97;35.90;;;;;;;;;;5057144;28;20493;-59
2022/03/17 10:46:03;;;;;;;88.10;39.17;;;;;;;;;;5058725;28;20503;-60
2022/03/17 10:48:29;;;;;;;84.68;38.78;;;;;;;;;;5055849;28;20524;-59
2022/03/17 10:50:55;;;;;;;81.30;37.13;;;;;;;;;;5057414;28;20047;-60
2022/03/17 10:53:27;;;;;;;87.00;38.25;;;;;;;;;;5062173;28;20035;-60
2022/03/17 10:55:52;;;;;;;74.57;34.63;;;;;;;;;;5057181;28;20099;-61
2022/03/17 10:58:20;;;;;;;78.65;36.47;;;;;;;;;;5055498;28;20150;-59
2022/03/17 11:00:53;;;;;;;81.05;34.13;;;;;;;;;;5054322;28;20420;-59
2022/03/17 11:03:20;;;;;;;74.95;34.53;;;;;;;;;;5051239;28;20029;-60
2022/03/17 11:05:51;;;;;;;71.22;34.03;;;;;;;;;;5055462;28;20029;-59
2022/03/17 11:08:18;;;;;;;72.95;35.42;;;;;;;;;;5055992;28;20021;-60
2022/03/17 11:10:44;;;;;;;72.15;33.90;;;;;;;;;;5050828;28;20033;-61
2022/03/17 11:13:11;;;;;;;71.68;34.40;;;;;;;;;;5056636;28;20090;-60
2022/03/17 11:15:43;;;;;;;74.95;34.40;;;;;;;;;;5062088;28;20553;-61
2022/03/17 11:18:18;;;;;;;90.63;41.53;;;;;;;;;;5062462;28;20028;-60
2022/03/17 11:20:43;;;;;;;89.45;40.78;;;;;;;;;;5055501;28;20033;-61
2022/03/17 11:23:20;;;;;;;87.75;37.97;;;;;;;;;;5058915;28;20029;-59
2022/03/17 11:25:56;;;;;;;76.78;35.20;;;;;;;;;;5062194;28;20040;-59
2022/03/17 11:28:32;;;;;;;77.65;36.17;;;;;;;;;;5057946;28;20021;-59
2022/03/17 11:31:07;;;;;;;85.63;37.67;;;;;;;;;;5052500;28;20253;-59
2022/03/17 11:33:36;;;;;;;85.43;37.92;;;;;;;;;;5056813;28;20104;-60
2022/03/17 11:36:13;;;;;;;80.57;36.92;;;;;;;;;;5052118;28;20056;-60
2022/03/17 11:38:43;;;;;;;79.70;36.88;;;;;;;;;;5057196;28;20032;-59
2022/03/17 11:41:24;;;;;;;76.45;35.92;;;;;;;;;;5055369;28;20121;-60
2022/03/17 11:43:50;;;;;;;76.15;35.08;;;;;;;;;;5051259;28;20104;-60
2022/03/17 11:46:17;;;;;;;73.45;33.90;;;;;;;;;;5058484;28;20052;-60
2022/03/17 11:48:45;;;;;;;71.80;32.65;;;;;;;;;;5057375;28;20487;-61
2022/03/17 11:51:13;;;;;;;77.28;33.53;;;;;;;;;;5057496;28;20028;-61
2022/03/17 11:53:43;;;;;;;75.32;34.20;;;;;;;;;;5060914;28;20440;-60
2022/03/17 11:56:09;;;;;;;74.53;34.83;;;;;;;;;;5062240;28;20114;-60
2022/03/17 11:58:43;;;;;;;75.15;34.78;;;;;;;;;;5064539;28;20047;-60
2022/03/17 12:01:34;;;;;;;71.30;32.25;;;;;;;;;;5051853;28;20315;-59
2022/03/17 12:04:07;;;;;;;80.63;33.83;;;;;;;;;;5053583;28;20021;-59
2022/03/17 12:06:33;;;;;;;71.32;33.22;;;;;;;;;;5048381;28;20028;-60
2022/03/17 12:09:11;;;;;;;72.07;36.20;;;;;;;;;;5045972;28;20025;-61
2022/03/17 12:11:47;;;;;;;73.82;33.53;;;;;;;;;;5054849;28;20125;-60
2022/03/17 12:14:18;;;;;;;65.85;31.05;;;;;;;;;;5050669;28;20032;-60
2022/03/17 12:16:57;;;;;;;70.50;31.75;;;;;;;;;;5061575;28;20031;-60
2022/03/17 12:19:48;;;;;;;68.78;31.48;;;;;;;;;;5059836;28;20021;-60
2022/03/17 12:22:20;;;;;;;71.00;31.70;;;;;;;;;;5052953;28;20140;-60
2022/03/17 12:24:52;;;;;;;72.40;30.83;;;;;;;;;;5059425;28;20029;-60
2022/03/17 12:27:30;;;;;;;69.90;31.13;;;;;;;;;;5058758;28;20036;-60
2022/03/17 12:30:13;;;;;;;70.82;31.83;;;;;;;;;;5059383;28;20066;-60
2022/03/17 12:32:48;;;;;;;70.85;31.45;;;;;;;;;;5055556;28;20028;-60
2022/03/17 12:35:14;;;;;;;74.07;32.72;;;;;;;;;;5056014;28;20052;-60
2022/03/17 12:37:43;;;;;;;74.07;31.55;;;;;;;;;;5059798;28;20035;-60
2022/03/17 12:40:14;;;;;;;65.10;31.00;;;;;;;;;;5054708;28;20375;-60
2022/03/17 12:42:47;;;;;;;65.10;29.88;;;;;;;;;;5057650;28;20036;-60
2022/03/17 12:45:18;;;;;;;71.07;31.90;;;;;;;;;;5056859;28;20025;-59
2022/03/17 12:47:51;;;;;;;73.43;33.53;;;;;;;;;;5064067;28;20040;-60
2022/03/17 12:50:18;;;;;;;72.38;31.50;;;;;;;;;;5050406;28;20392;-58
2022/03/17 12:52:46;;;;;;;74.00;33.00;;;;;;;;;;5058210;28;20037;-59
2022/03/17 12:55:14;;;;;;;77.97;34.35;;;;;;;;;;5054788;28;20484;-61
2022/03/17 12:57:40;;;;;;;73.50;35.05;;;;;;;;;;5059829;28;20116;-59
2022/03/17 13:00:08;;;;;;;75.75;34.53;;;;;;;;;;5056821;28;20378;-59
2022/03/17 13:02:34;;;;;;;81.07;35.97;;;;;;;;;;5063537;28;20120;-59
2022/03/17 13:07:45;;;;;;;81.07;36.30;;;;;;;;;;5052879;28;20297;-60
2022/03/17 13:10:10;;;;;;;74.55;35.42;;;;;;;;;;5055160;28;20029;-60
2022/03/17 13:15:23;;;;;;;87.47;37.90;;;;;;;;;;5053166;28;20483;-60
2022/03/17 13:18:04;;;;;;;78.40;37.47;;;;;;;;;;5063655;28;20045;-60
2022/03/17 13:20:29;;;;;;;79.68;36.05;;;;;;;;;;5057527;28;20448;-60
2022/03/17 13:23:04;;;;;;;87.60;38.00;;;;;;;;;;5057819;28;20027;-60
2022/03/17 13:25:38;;;;;;;91.55;37.75;;;;;;;;;;5066502;28;20021;-61
2022/03/17 13:28:03;;;;;;;83.05;36.72;;;;;;;;;;5060340;28;20455;-60
2022/03/17 13:30:34;;;;;;;76.38;35.50;;;;;;;;;;5058089;28;20060;-60
2022/03/17 13:33:00;;;;;;;80.43;35.70;;;;;;;;;;5059739;28;20550;-59
2022/03/17 13:35:27;;;;;;;86.97;38.15;;;;;;;;;;5056663;28;20104;-60
2022/03/17 13:38:10;;;;;;;86.70;37.95;;;;;;;;;;5059065;28;20345;-60
2022/03/17 13:40:51;;;;;;;80.00;35.70;;;;;;;;;;5055965;28;20104;-59
2022/03/17 13:43:18;;;;;;;84.93;38.05;;;;;;;;;;5061421;28;20040;-60
2022/03/17 13:45:46;;;;;;;123.03;48.10;;;;;;;;;;5057161;28;20511;-60
2022/03/17 13:48:13;;;;;;;104.68;42.60;;;;;;;;;;5056454;28;20544;-60
2022/03/17 13:50:49;;;;;;;96.55;42.30;;;;;;;;;;5055616;28;20033;-59
2022/03/17 13:53:39;;;;;;;106.75;44.55;;;;;;;;;;5057487;28;20079;-60
2022/03/17 13:56:06;;;;;;;117.47;46.40;;;;;;;;;;5061394;28;21033;-61
2022/03/17 13:58:33;;;;;;;108.60;43.47;;;;;;;;;;5058317;28;20519;-61
2022/03/17 14:01:17;;;;;;;100.60;41.88;;;;;;;;;;5054675;28;20020;-61
2022/03/17 14:03:46;;;;;;;101.78;42.60;;;;;;;;;;5054875;28;20024;-60
2022/03/17 14:06:18;;;;;;;95.53;39.17;;;;;;;;;;5058569;28;20028;-62
2022/03/17 14:08:48;;;;;;;126.75;49.78;;;;;;;;;;5054548;28;20036;-58
2022/03/17 14:11:19;;;;;;;111.63;43.30;;;;;;;;;;5054401;28;20044;-59
2022/03/17 14:13:46;;;;;;;91.70;39.30;;;;;;;;;;5058090;28;20141;-60
2022/03/17 14:16:13;;;;;;;83.90;37.65;;;;;;;;;;5058585;28;20028;-59
2022/03/17 14:18:40;;;;;;;95.03;39.30;;;;;;;;;;5055858;28;20040;-59
2022/03/17 14:21:08;;;;;;;86.05;37.85;;;;;;;;;;5065305;28;20036;-59
2022/03/17 14:26:19;;;;;;;86.72;37.38;;;;;;;;;;5051632;28;20117;-58
2022/03/17 14:28:44;;;;;;;88.80;38.83;;;;;;;;;;5060477;28;20039;-59
2022/03/17 14:31:12;;;;;;;87.45;38.88;;;;;;;;;;5052710;28;20025;-59
2022/03/17 14:33:40;;;;;;;83.07;36.72;;;;;;;;;;5058086;28;20104;-59
2022/03/17 14:36:07;;;;;;;83.85;37.63;;;;;;;;;;5059685;28;20427;-59
2022/03/17 14:38:34;;;;;;;90.72;37.72;;;;;;;;;;5059873;28;20502;-58
2022/03/17 14:40:59;;;;;;;88.60;38.33;;;;;;;;;;5056339;28;20031;-58
2022/03/17 14:43:25;;;;;;;89.80;38.55;;;;;;;;;;5056230;28;20028;-61